Time;durP1;ratioP1;P1;durP2;ratioP2;P2;SDS_P1;SDS_P2;PMS_P1;PMS_P2;Temp;Humidity;BMP_temperature;BMP_pressure;BME280_temperature;BME280_humidity;BME280_pressure;Samples;Min_cycle;Max_cycle;Signal;HPM_P1;HPM_P2
2021/08/29 00:01:21;;;;;;;9.38;4.20;;;16.10;99.90;;;;;;6152365;23;20054;-72
2021/08/29 00:03:47;;;;;;;14.82;4.40;;;16.10;99.90;;;;;;6152793;23;20017;-73
2021/08/29 00:06:13;;;;;;;10.57;4.13;;;16.10;99.90;;;;;;6101671;23;20074;-73
2021/08/29 00:08:38;;;;;;;9.30;3.28;;;16.10;99.90;;;;;;6126133;23;20025;-72
2021/08/29 00:11:04;;;;;;;10.43;4.45;;;16.10;99.90;;;;;;6126114;23;20092;-72
2021/08/29 00:13:29;;;;;;;11.73;4.03;;;16.10;99.90;;;;;;6153055;23;20006;-72
2021/08/29 00:15:55;;;;;;;13.63;5.00;;;16.10;99.90;;;;;;6101628;23;20021;-72
2021/08/29 00:18:20;;;;;;;12.32;4.85;;;16.10;99.90;;;;;;6152681;23;20013;-72
2021/08/29 00:20:46;;;;;;;11.15;4.53;;;16.10;99.90;;;;;;6126148;23;20018;-73
2021/08/29 00:23:12;;;;;;;7.63;4.22;;;16.10;99.90;;;;;;6101735;23;20024;-73
2021/08/29 00:25:37;;;;;;;11.52;4.25;;;16.10;99.90;;;;;;6126181;23;20025;-72
2021/08/29 00:28:03;;;;;;;10.02;4.20;;;16.10;99.90;;;;;;6126069;23;20024;-72
2021/08/29 00:30:29;;;;;;;13.32;4.80;;;16.10;99.90;;;;;;6126104;23;20013;-73
2021/08/29 00:32:55;;;;;;;12.38;4.25;;;16.10;99.90;;;;;;6152649;23;20505;-73
2021/08/29 00:35:21;;;;;;;9.68;4.55;;;16.10;99.90;;;;;;6126179;23;20028;-72
2021/08/29 00:37:46;;;;;;;9.98;4.10;;;16.10;99.90;;;;;;6101791;23;20021;-72
2021/08/29 00:40:15;;;;;;;12.48;4.97;;;16.10;99.90;;;;;;6152498;23;20078;-73
2021/08/29 00:42:42;;;;;;;10.48;4.15;;;16.10;99.90;;;;;;6126004;23;20018;-72
2021/08/29 00:45:08;;;;;;;9.25;4.32;;;16.10;99.90;;;;;;6154115;23;20024;-72
2021/08/29 00:47:34;;;;;;;10.60;4.53;;;16.10;99.90;;;;;;6154297;23;20449;-72
2021/08/29 00:50:03;;;;;;;9.27;4.45;;;16.10;99.90;;;;;;6154226;23;20021;-72
2021/08/29 00:52:29;;;;;;;17.17;5.38;;;16.10;99.90;;;;;;6143055;23;20397;-72
2021/08/29 00:54:55;;;;;;;11.93;4.80;;;16.10;99.90;;;;;;6154588;23;20021;-72
2021/08/29 00:57:20;;;;;;;9.98;4.93;;;16.20;99.90;;;;;;6152407;23;20017;-73
2021/08/29 00:59:46;;;;;;;9.85;4.63;;;16.20;99.90;;;;;;6154089;23;20013;-72
2021/08/29 01:02:19;;;;;;;12.25;4.70;;;16.10;99.90;;;;;;6154401;23;20322;-73
2021/08/29 01:05:00;;;;;;;11.02;4.28;;;16.10;99.90;;;;;;6152572;23;20018;-73
2021/08/29 01:07:33;;;;;;;8.52;4.03;;;16.20;99.90;;;;;;6152264;23;20018;-73
2021/08/29 01:10:03;;;;;;;11.10;4.68;;;16.20;99.90;;;;;;6152942;23;20025;-72
2021/08/29 01:12:30;;;;;;;12.55;4.80;;;16.30;99.90;;;;;;6153857;23;20445;-72
2021/08/29 01:14:57;;;;;;;8.82;4.47;;;16.20;99.90;;;;;;6152343;23;20335;-72
2021/08/29 01:17:27;;;;;;;7.95;4.50;;;16.20;99.90;;;;;;6152629;23;20020;-71
2021/08/29 01:20:13;;;;;;;11.85;4.65;;;16.20;99.90;;;;;;6152362;23;20014;-72
2021/08/29 01:22:40;;;;;;;13.63;5.10;;;16.20;99.90;;;;;;6154243;23;20018;-72
2021/08/29 01:25:08;;;;;;;9.25;4.60;;;16.20;99.90;;;;;;6152322;23;20064;-72
2021/08/29 01:27:44;;;;;;;12.27;5.05;;;16.20;99.90;;;;;;6153950;23;20014;-72
2021/08/29 01:30:11;;;;;;;9.77;4.38;;;16.20;99.90;;;;;;6153980;23;20051;-72
2021/08/29 01:32:37;;;;;;;8.57;4.18;;;16.20;99.90;;;;;;6154089;23;20021;-72
2021/08/29 01:35:04;;;;;;;8.70;4.50;;;16.20;99.90;;;;;;6127504;23;20013;-72
2021/08/29 01:37:31;;;;;;;9.63;4.40;;;16.10;99.90;;;;;;6153782;23;20330;-72
2021/08/29 01:39:57;;;;;;;10.90;4.55;;;16.20;99.90;;;;;;6154134;23;20310;-72
2021/08/29 01:42:23;;;;;;;15.48;4.82;;;16.20;99.90;;;;;;6154043;23;20088;-72
2021/08/29 01:44:48;;;;;;;8.93;3.92;;;16.20;99.90;;;;;;6153801;23;20049;-72
2021/08/29 01:47:18;;;;;;;9.10;4.00;;;16.20;99.90;;;;;;6151847;23;20410;-72
2021/08/29 01:49:45;;;;;;;11.15;4.82;;;16.20;99.90;;;;;;6152110;23;20020;-72
2021/08/29 01:52:13;;;;;;;11.95;4.55;;;16.20;99.90;;;;;;6153352;23;20457;-72
2021/08/29 01:54:39;;;;;;;9.45;4.00;;;16.10;99.90;;;;;;6127801;23;20022;-72
2021/08/29 01:57:15;;;;;;;8.77;4.32;;;16.10;99.90;;;;;;6153786;23;20507;-72
2021/08/29 01:59:45;;;;;;;10.90;4.35;;;16.20;99.90;;;;;;6153819;23;20013;-72
2021/08/29 02:02:15;;;;;;;12.80;4.00;;;16.10;99.90;;;;;;6127550;23;20020;-72
2021/08/29 02:04:43;;;;;;;11.07;4.32;;;16.20;99.90;;;;;;6153979;23;20014;-72
2021/08/29 02:07:18;;;;;;;10.35;4.05;;;16.10;99.90;;;;;;6127448;23;20338;-72
2021/08/29 02:09:47;;;;;;;10.68;4.38;;;16.10;99.90;;;;;;6127199;23;20014;-72
2021/08/29 02:12:13;;;;;;;9.75;4.10;;;16.20;99.90;;;;;;6127061;23;20342;-72
2021/08/29 02:15:08;;;;;;;10.88;4.28;;;16.20;99.90;;;;;;6127625;23;20021;-72
2021/08/29 02:17:34;;;;;;;9.13;4.78;;;16.20;99.90;;;;;;6127091;23;20618;-72
2021/08/29 02:20:06;;;;;;;8.10;3.92;;;16.10;99.90;;;;;;6127129;23;20029;-72
2021/08/29 02:22:33;;;;;;;11.10;4.55;;;16.20;99.90;;;;;;6153247;23;20092;-72
2021/08/29 02:24:58;;;;;;;9.75;3.92;;;16.10;99.90;;;;;;6153604;23;20021;-72
2021/08/29 02:27:24;;;;;;;8.65;3.67;;;16.10;99.90;;;;;;6126902;23;20032;-72
2021/08/29 02:29:50;;;;;;;6.80;3.53;;;16.10;99.90;;;;;;6127192;23;20025;-72
2021/08/29 02:32:16;;;;;;;10.60;4.30;;;16.10;99.90;;;;;;6127057;23;20341;-73
2021/08/29 02:34:43;;;;;;;12.95;4.07;;;16.00;99.90;;;;;;6127252;23;20017;-72
2021/08/29 02:37:09;;;;;;;10.52;4.13;;;16.10;99.90;;;;;;6127065;23;20333;-72
2021/08/29 02:39:36;;;;;;;8.57;3.63;;;16.00;99.90;;;;;;6153279;23;20065;-72
2021/08/29 02:42:04;;;;;;;10.55;3.85;;;16.00;99.90;;;;;;6153122;23;20303;-72
2021/08/29 02:44:29;;;;;;;9.25;3.83;;;16.10;99.90;;;;;;6126891;23;20021;-72
2021/08/29 02:46:56;;;;;;;9.38;3.92;;;16.10;99.90;;;;;;6126870;23;20084;-73
2021/08/29 02:49:22;;;;;;;10.68;3.85;;;16.10;99.90;;;;;;6152933;23;20453;-72
2021/08/29 02:51:52;;;;;;;11.85;3.72;;;16.10;99.90;;;;;;6130468;23;20021;-72
2021/08/29 02:54:21;;;;;;;7.93;3.97;;;16.10;99.90;;;;;;6153326;23;20092;-72
2021/08/29 02:56:48;;;;;;;7.85;3.30;;;16.10;99.90;;;;;;6153379;23;20094;-72
2021/08/29 02:59:15;;;;;;;9.70;3.92;;;16.10;99.90;;;;;;6153251;23;20010;-72
2021/08/29 03:01:40;;;;;;;11.65;3.53;;;16.10;99.90;;;;;;6151360;23;20080;-72
2021/08/29 03:04:07;;;;;;;9.07;3.25;;;16.10;99.90;;;;;;6152835;23;20018;-72
2021/08/29 03:06:33;;;;;;;9.02;3.25;;;16.10;99.90;;;;;;6152832;23;20021;-72
2021/08/29 03:08:59;;;;;;;7.35;3.38;;;16.10;99.90;;;;;;6126438;23;20022;-72
2021/08/29 03:11:25;;;;;;;10.80;3.47;;;16.10;99.90;;;;;;6151256;23;20341;-72
2021/08/29 03:13:51;;;;;;;9.07;3.80;;;16.10;99.90;;;;;;6153143;23;20353;-72
2021/08/29 03:16:16;;;;;;;10.10;3.80;;;16.10;99.90;;;;;;6153086;23;20018;-72
2021/08/29 03:18:44;;;;;;;7.68;3.58;;;16.10;99.90;;;;;;6152732;23;20464;-72
2021/08/29 03:21:10;;;;;;;8.18;3.60;;;16.10;99.90;;;;;;6151252;23;20013;-72
2021/08/29 03:23:36;;;;;;;11.07;3.53;;;16.10;99.90;;;;;;6152899;23;20021;-72
2021/08/29 03:26:02;;;;;;;9.57;3.35;;;16.10;99.90;;;;;;6152834;23;20020;-72
2021/08/29 03:28:28;;;;;;;8.25;3.35;;;16.10;99.90;;;;;;6150885;23;20092;-72
2021/08/29 03:30:54;;;;;;;11.65;3.83;;;16.10;99.90;;;;;;6153111;23;20051;-72
2021/08/29 03:33:22;;;;;;;7.85;3.80;;;16.10;99.90;;;;;;6151175;23;20088;-72
2021/08/29 03:35:49;;;;;;;7.80;3.35;;;16.10;99.90;;;;;;6150932;23;20014;-72
2021/08/29 03:38:20;;;;;;;7.43;3.78;;;16.10;99.90;;;;;;6151179;23;20045;-72
2021/08/29 03:40:46;;;;;;;7.97;2.97;;;16.10;99.90;;;;;;6152887;23;20064;-72
2021/08/29 03:43:14;;;;;;;8.45;3.38;;;16.10;99.90;;;;;;6151154;23;20298;-72
2021/08/29 03:45:40;;;;;;;8.98;3.33;;;16.10;99.90;;;;;;6152867;23;20021;-72
2021/08/29 03:48:08;;;;;;;9.73;3.60;;;16.10;99.90;;;;;;6150969;23;20080;-72
2021/08/29 03:50:34;;;;;;;9.80;3.97;;;16.10;99.90;;;;;;6152486;23;20416;-72
2021/08/29 03:53:00;;;;;;;6.70;3.20;;;16.10;99.90;;;;;;6150815;23;20048;-72
2021/08/29 03:55:27;;;;;;;7.18;3.08;;;16.10;99.90;;;;;;6153085;23;20076;-72
2021/08/29 03:57:55;;;;;;;11.20;4.00;;;16.10;99.90;;;;;;6150995;23;20026;-72
2021/08/29 04:00:21;;;;;;;9.55;3.20;;;16.10;99.90;;;;;;6150776;23;20032;-72
2021/08/29 04:02:47;;;;;;;8.10;3.55;;;16.10;99.90;;;;;;6150920;23;20017;-72
2021/08/29 04:05:13;;;;;;;7.28;3.35;;;16.10;99.90;;;;;;6152398;23;20024;-72
2021/08/29 04:07:38;;;;;;;8.18;3.30;;;16.10;99.90;;;;;;6150674;23;20013;-73
2021/08/29 04:10:05;;;;;;;9.02;3.72;;;16.10;99.90;;;;;;6152734;23;20378;-73
2021/08/29 04:12:32;;;;;;;6.80;3.17;;;16.10;99.90;;;;;;6150839;23;20049;-73
2021/08/29 04:14:59;;;;;;;8.07;2.72;;;16.10;99.90;;;;;;6150732;23;20013;-72
2021/08/29 04:17:25;;;;;;;10.35;4.00;;;16.10;99.90;;;;;;6150812;23;20014;-73
2021/08/29 04:19:52;;;;;;;9.73;3.40;;;16.10;99.90;;;;;;6127145;23;20065;-73
2021/08/29 04:22:18;;;;;;;7.07;3.40;;;16.10;99.90;;;;;;6152935;23;20045;-73
2021/08/29 04:24:44;;;;;;;5.85;3.28;;;16.10;99.90;;;;;;6154301;23;20345;-72
2021/08/29 04:27:10;;;;;;;9.95;3.20;;;16.10;99.90;;;;;;6154369;23;20044;-72
2021/08/29 04:29:36;;;;;;;8.77;3.42;;;16.10;99.90;;;;;;6154638;23;20021;-72
2021/08/29 04:32:03;;;;;;;11.30;3.50;;;16.10;99.90;;;;;;6155074;23;20428;-72
2021/08/29 04:34:29;;;;;;;7.82;3.60;;;16.10;99.90;;;;;;6154718;23;20081;-72
2021/08/29 04:36:54;;;;;;;10.18;3.63;;;16.10;99.90;;;;;;6154640;23;20378;-72
2021/08/29 04:39:20;;;;;;;10.88;3.58;;;16.20;99.90;;;;;;6152749;23;20421;-72
2021/08/29 04:41:45;;;;;;;10.40;3.63;;;16.10;99.90;;;;;;6154503;23;20452;-72
2021/08/29 04:44:11;;;;;;;11.55;3.28;;;16.20;99.90;;;;;;6154261;23;20056;-72
2021/08/29 04:46:38;;;;;;;12.30;3.53;;;16.20;99.90;;;;;;6152540;23;20018;-72
2021/08/29 04:49:04;;;;;;;9.20;3.58;;;16.20;99.90;;;;;;6154515;23;20024;-72
2021/08/29 04:51:29;;;;;;;10.57;4.07;;;16.20;99.90;;;;;;6154153;23;20402;-72
2021/08/29 04:53:56;;;;;;;11.20;4.28;;;16.20;99.90;;;;;;6128039;23;20021;-73
2021/08/29 04:56:21;;;;;;;8.98;3.38;;;16.10;99.90;;;;;;6127855;23;20438;-72
2021/08/29 04:58:47;;;;;;;10.32;3.30;;;16.10;99.90;;;;;;6127964;23;20064;-72
2021/08/29 05:01:13;;;;;;;6.90;3.10;;;16.10;99.90;;;;;;6127842;23;20032;-72
2021/08/29 05:03:38;;;;;;;9.52;3.58;;;16.10;99.90;;;;;;6154343;23;20437;-71
2021/08/29 05:06:04;;;;;;;7.38;3.38;;;16.00;99.90;;;;;;6154286;23;20472;-71
2021/08/29 05:08:30;;;;;;;9.38;3.50;;;16.00;99.90;;;;;;6127705;23;20022;-71
2021/08/29 05:10:55;;;;;;;9.82;3.47;;;15.80;99.90;;;;;;6154149;23;20297;-71
2021/08/29 05:13:21;;;;;;;6.20;3.10;;;15.70;99.90;;;;;;6154285;23;20021;-71
2021/08/29 05:15:46;;;;;;;6.53;3.30;;;15.60;99.90;;;;;;6127562;23;20462;-71
2021/08/29 05:18:12;;;;;;;8.02;3.33;;;15.60;99.90;;;;;;6154205;23;20101;-71
2021/08/29 05:20:37;;;;;;;7.55;3.10;;;15.60;99.90;;;;;;6154113;23;20028;-71
2021/08/29 05:23:03;;;;;;;7.78;3.33;;;15.60;99.90;;;;;;6154026;23;20480;-71
2021/08/29 05:25:29;;;;;;;8.15;4.15;;;15.60;99.90;;;;;;6153851;23;20025;-71
2021/08/29 05:27:55;;;;;;;7.25;3.30;;;15.60;99.90;;;;;;6127284;23;20017;-71
2021/08/29 05:30:21;;;;;;;8.10;3.00;;;15.60;99.90;;;;;;6153628;23;20019;-71
2021/08/29 05:32:46;;;;;;;8.38;3.58;;;15.50;99.90;;;;;;6127260;23;20017;-71
2021/08/29 05:35:12;;;;;;;9.43;3.72;;;15.50;99.90;;;;;;6153592;23;20023;-71
2021/08/29 05:37:38;;;;;;;9.57;3.60;;;15.40;99.90;;;;;;6127524;23;20017;-71
2021/08/29 05:40:04;;;;;;;8.95;3.53;;;15.40;99.90;;;;;;6127451;23;20020;-71
2021/08/29 05:42:30;;;;;;;10.60;3.53;;;15.40;99.90;;;;;;6153466;23;20025;-71
2021/08/29 05:44:56;;;;;;;8.38;3.63;;;15.50;99.90;;;;;;6127545;23;20070;-72
2021/08/29 05:47:21;;;;;;;8.00;3.58;;;15.50;99.90;;;;;;6127205;23;20072;-71
2021/08/29 05:49:47;;;;;;;7.47;3.38;;;15.50;99.90;;;;;;6153962;23;20013;-71
2021/08/29 05:52:13;;;;;;;11.32;3.95;;;15.50;99.90;;;;;;6153659;23;20021;-73
2021/08/29 05:54:38;;;;;;;9.23;3.92;;;15.40;99.90;;;;;;6127831;23;20029;-73
2021/08/29 05:57:04;;;;;;;10.45;3.63;;;15.40;99.90;;;;;;6127614;23;20481;-74
2021/08/29 05:59:30;;;;;;;11.38;3.63;;;15.40;99.90;;;;;;6127290;23;20014;-73
2021/08/29 06:01:55;;;;;;;14.00;3.92;;;15.40;99.90;;;;;;6127254;23;20017;-73
2021/08/29 06:04:21;;;;;;;13.30;3.30;;;15.40;99.90;;;;;;6127299;23;20005;-73
2021/08/29 06:06:46;;;;;;;11.40;3.90;;;15.40;99.90;;;;;;6127188;23;20073;-73
2021/08/29 06:09:12;;;;;;;8.52;3.33;;;15.50;99.90;;;;;;6102852;23;20021;-73
2021/08/29 06:11:37;;;;;;;8.73;3.20;;;15.40;99.90;;;;;;6127063;23;20454;-73
2021/08/29 06:14:05;;;;;;;12.30;3.67;;;15.40;99.90;;;;;;6127141;23;20044;-73
2021/08/29 06:16:30;;;;;;;11.02;3.78;;;15.40;99.90;;;;;;6126948;23;20009;-73
2021/08/29 06:18:56;;;;;;;9.40;3.13;;;15.40;99.90;;;;;;6127218;23;20337;-72
2021/08/29 06:21:22;;;;;;;10.70;2.63;;;15.40;99.90;;;;;;6127104;23;20077;-72
2021/08/29 06:23:47;;;;;;;11.00;3.03;;;15.50;99.90;;;;;;6127073;23;20013;-73
2021/08/29 06:26:13;;;;;;;12.27;3.40;;;15.50;99.90;;;;;;6153303;23;20010;-72
2021/08/29 06:28:38;;;;;;;9.68;3.15;;;15.40;99.90;;;;;;6152996;23;20017;-72
2021/08/29 06:31:04;;;;;;;9.80;2.90;;;15.40;99.90;;;;;;6127090;23;20469;-73
2021/08/29 06:33:29;;;;;;;12.18;3.60;;;15.50;99.90;;;;;;6126860;23;20489;-73
2021/08/29 06:35:55;;;;;;;7.43;2.85;;;15.50;99.90;;;;;;6126954;23;20097;-73
2021/08/29 06:38:21;;;;;;;12.07;3.45;;;15.50;99.90;;;;;;6126810;23;20089;-73
2021/08/29 06:40:47;;;;;;;13.52;3.42;;;15.60;99.90;;;;;;6153366;23;20021;-73
2021/08/29 06:43:13;;;;;;;13.27;3.60;;;15.60;99.90;;;;;;6152903;23;20333;-73
2021/08/29 06:45:39;;;;;;;13.60;3.05;;;15.70;99.90;;;;;;6127305;23;20022;-73
2021/08/29 06:48:04;;;;;;;11.20;3.72;;;15.70;99.90;;;;;;6126621;23;20492;-74
2021/08/29 06:50:30;;;;;;;12.57;3.20;;;15.70;99.90;;;;;;6126845;23;20025;-73
2021/08/29 06:52:55;;;;;;;11.40;2.72;;;15.70;99.90;;;;;;6119528;23;20035;-73
2021/08/29 06:55:21;;;;;;;8.75;3.13;;;15.80;99.90;;;;;;6151382;23;20013;-72
2021/08/29 06:57:46;;;;;;;10.80;3.22;;;15.80;99.90;;;;;;6151208;23;20549;-73
2021/08/29 07:00:12;;;;;;;9.43;2.72;;;15.90;99.90;;;;;;6126838;23;20025;-72
2021/08/29 07:02:38;;;;;;;10.13;3.33;;;15.90;99.90;;;;;;6152875;23;20017;-74
2021/08/29 07:05:04;;;;;;;6.55;2.92;;;15.80;99.90;;;;;;6151255;23;20014;-73
2021/08/29 07:07:31;;;;;;;9.35;2.97;;;15.90;99.90;;;;;;6150930;23;20024;-73
2021/08/29 07:09:57;;;;;;;9.18;3.00;;;15.90;99.90;;;;;;6151344;23;20088;-73
2021/08/29 07:12:22;;;;;;;10.30;3.60;;;15.90;99.90;;;;;;6151013;23;20373;-72
2021/08/29 07:14:48;;;;;;;9.48;3.92;;;15.90;99.90;;;;;;6151224;23;20393;-73
2021/08/29 07:17:16;;;;;;;10.43;3.70;;;15.80;99.90;;;;;;6126662;23;20010;-72
2021/08/29 07:19:41;;;;;;;14.52;4.25;;;15.80;99.90;;;;;;6151239;23;20337;-72
2021/08/29 07:22:07;;;;;;;8.43;3.53;;;15.80;99.90;;;;;;6151195;23;20013;-72
2021/08/29 07:24:33;;;;;;;10.20;3.90;;;15.90;99.90;;;;;;6150916;23;20250;-72
2021/08/29 07:26:58;;;;;;;14.23;4.85;;;15.80;99.90;;;;;;6153082;23;20021;-72
2021/08/29 07:29:24;;;;;;;9.18;3.58;;;15.80;99.90;;;;;;6150734;23;20028;-73
2021/08/29 07:31:50;;;;;;;6.70;3.38;;;15.90;99.90;;;;;;6126402;23;20089;-73
2021/08/29 07:34:15;;;;;;;11.05;3.47;;;15.90;99.90;;;;;;6150787;23;20017;-72
2021/08/29 07:36:41;;;;;;;6.90;3.22;;;15.90;99.90;;;;;;6150968;23;20465;-72
2021/08/29 07:39:06;;;;;;;10.27;3.70;;;15.90;99.90;;;;;;6150948;23;20480;-72
2021/08/29 07:41:33;;;;;;;10.10;3.63;;;15.90;99.90;;;;;;6151299;23;20026;-73
2021/08/29 07:43:58;;;;;;;7.55;3.80;;;15.90;99.90;;;;;;6150894;23;20052;-72
2021/08/29 07:46:26;;;;;;;8.13;3.60;;;16.00;99.90;;;;;;6150981;23;20013;-73
2021/08/29 07:48:52;;;;;;;7.88;3.72;;;16.00;99.90;;;;;;6126493;23;20441;-72
2021/08/29 07:51:18;;;;;;;11.63;3.97;;;16.10;99.90;;;;;;6150704;23;20044;-72
2021/08/29 07:53:43;;;;;;;8.75;4.55;;;16.30;99.90;;;;;;6126071;23;20014;-73
2021/08/29 07:56:09;;;;;;;9.13;4.30;;;16.40;99.90;;;;;;6126399;23;20045;-72
2021/08/29 07:58:34;;;;;;;10.95;4.65;;;16.40;99.90;;;;;;6101657;23;20343;-72
2021/08/29 08:01:00;;;;;;;11.18;4.90;;;16.50;99.90;;;;;;6126342;23;20076;-72
2021/08/29 08:03:25;;;;;;;14.00;4.70;;;16.50;99.90;;;;;;6126126;23;20052;-72
2021/08/29 08:05:51;;;;;;;11.75;4.95;;;16.70;99.90;;;;;;6126589;23;20021;-73
2021/08/29 08:08:16;;;;;;;10.32;4.00;;;16.60;99.90;;;;;;6152501;23;20089;-73
2021/08/29 08:10:42;;;;;;;10.50;4.97;;;16.70;99.90;;;;;;6125998;23;20013;-73
2021/08/29 08:13:08;;;;;;;11.43;5.05;;;16.80;99.90;;;;;;6126240;23;20048;-72
2021/08/29 08:15:33;;;;;;;9.95;4.35;;;16.80;99.90;;;;;;6126082;23;20068;-73
2021/08/29 08:17:59;;;;;;;10.18;4.60;;;16.90;99.90;;;;;;6126254;23;20476;-73
2021/08/29 08:20:24;;;;;;;10.35;4.53;;;16.90;99.90;;;;;;6125911;23;20040;-72
2021/08/29 08:22:50;;;;;;;9.95;4.50;;;16.90;99.90;;;;;;6125954;23;20039;-72
2021/08/29 08:25:16;;;;;;;8.40;4.05;;;17.00;99.90;;;;;;6126034;23;20393;-73
2021/08/29 08:27:41;;;;;;;11.70;4.40;;;17.10;99.90;;;;;;6126130;23;20017;-73
2021/08/29 08:30:07;;;;;;;10.40;4.20;;;17.10;99.90;;;;;;6152498;23;20021;-73
2021/08/29 08:32:33;;;;;;;10.57;4.60;;;17.00;99.90;;;;;;6125902;23;20017;-73
2021/08/29 08:34:59;;;;;;;12.45;4.82;;;17.10;99.90;;;;;;6126246;23;20020;-73
2021/08/29 08:37:24;;;;;;;11.50;4.55;;;17.00;99.90;;;;;;6126049;23;20014;-73
2021/08/29 08:39:50;;;;;;;10.65;4.47;;;17.00;99.90;;;;;;6152456;23;20014;-73
2021/08/29 08:42:16;;;;;;;9.52;3.97;;;16.90;99.90;;;;;;6101618;23;20013;-73
2021/08/29 08:44:47;;;;;;;6.88;4.20;;;16.90;99.90;;;;;;6125885;23;20484;-73
2021/08/29 08:47:19;;;;;;;7.80;4.20;;;16.90;99.90;;;;;;6126011;23;20088;-73
2021/08/29 08:49:45;;;;;;;7.05;3.58;;;17.00;99.90;;;;;;6101559;23;20064;-72
2021/08/29 08:52:31;;;;;;;6.25;3.15;;;17.00;99.90;;;;;;6134398;23;20361;-73
2021/08/29 08:55:00;;;;;;;5.28;3.67;;;17.10;99.90;;;;;;6174710;23;20017;-72
2021/08/29 08:57:26;;;;;;;9.50;4.18;;;17.10;99.90;;;;;;6126024;23;20017;-73
2021/08/29 08:59:52;;;;;;;7.65;3.80;;;17.10;99.90;;;;;;6150813;23;20084;-73
2021/08/29 09:02:20;;;;;;;5.28;3.15;;;17.10;99.90;;;;;;6126095;23;20521;-72
2021/08/29 09:04:47;;;;;;;6.45;3.13;;;17.10;99.90;;;;;;6152442;23;20022;-73
2021/08/29 09:07:13;;;;;;;10.20;3.33;;;17.10;99.90;;;;;;6152381;23;20334;-73
2021/08/29 09:09:38;;;;;;;6.00;3.15;;;17.00;99.90;;;;;;6152238;23;20017;-73
2021/08/29 09:12:05;;;;;;;7.00;3.05;;;17.00;99.90;;;;;;6127749;23;20505;-73
2021/08/29 09:14:42;;;;;;;4.85;3.38;;;17.10;99.90;;;;;;6152134;23;20018;-73
2021/08/29 09:17:29;;;;;;;6.97;3.50;;;17.10;99.90;;;;;;6152293;23;20315;-73
2021/08/29 09:20:15;;;;;;;5.32;3.35;;;17.10;99.90;;;;;;6127715;23;20118;-73
2021/08/29 09:22:43;;;;;;;5.65;3.40;;;17.00;99.90;;;;;;6127657;23;20013;-73
2021/08/29 09:25:21;;;;;;;7.45;3.28;;;17.00;99.90;;;;;;6152065;23;20009;-73
2021/08/29 09:28:10;;;;;;;10.70;3.85;;;17.00;99.90;;;;;;6152231;23;20021;-71
2021/08/29 09:30:39;;;;;;;6.20;3.38;;;17.00;99.90;;;;;;6151910;23;20009;-71
2021/08/29 09:33:05;;;;;;;8.88;3.20;;;17.00;99.90;;;;;;6152175;23;20092;-71
2021/08/29 09:35:34;;;;;;;6.60;3.65;;;17.00;99.90;;;;;;6152389;23;20052;-71
2021/08/29 09:38:01;;;;;;;7.68;3.40;;;17.00;99.90;;;;;;6152059;23;20009;-71
2021/08/29 09:40:30;;;;;;;8.52;3.33;;;17.00;99.90;;;;;;6152048;23;20445;-71
2021/08/29 09:42:57;;;;;;;8.25;3.42;;;17.10;99.90;;;;;;6152043;23;20148;-71
2021/08/29 09:45:25;;;;;;;7.35;3.35;;;17.10;99.90;;;;;;6127458;23;20041;-71
2021/08/29 09:47:52;;;;;;;9.27;3.90;;;17.10;99.90;;;;;;6127397;23;20459;-71
2021/08/29 09:50:21;;;;;;;5.65;3.17;;;16.90;99.90;;;;;;6151852;23;20446;-71
2021/08/29 09:52:46;;;;;;;8.13;3.53;;;16.90;99.90;;;;;;6151860;23;20598;-71
2021/08/29 09:55:13;;;;;;;6.25;3.35;;;16.90;99.90;;;;;;6127328;23;20017;-71
2021/08/29 09:57:38;;;;;;;9.35;3.55;;;16.90;99.90;;;;;;6127825;23;20045;-73
2021/08/29 10:00:08;;;;;;;7.55;3.58;;;16.90;99.90;;;;;;6127739;23;20021;-73
2021/08/29 10:02:34;;;;;;;6.53;3.38;;;16.80;99.90;;;;;;6151856;23;20023;-73
2021/08/29 10:05:17;;;;;;;6.20;3.65;;;16.80;99.90;;;;;;6151866;23;20092;-73
2021/08/29 10:08:08;;;;;;;5.40;3.50;;;16.80;99.90;;;;;;6129177;23;20014;-71
2021/08/29 10:10:37;;;;;;;8.05;3.55;;;16.70;99.90;;;;;;6127468;23;20560;-71
2021/08/29 10:13:03;;;;;;;8.40;3.45;;;16.70;99.90;;;;;;6127244;23;20017;-71
2021/08/29 10:15:31;;;;;;;6.40;3.30;;;16.50;99.90;;;;;;6127272;23;20611;-71
2021/08/29 10:17:59;;;;;;;6.53;3.17;;;16.50;99.90;;;;;;6153197;23;20084;-71
2021/08/29 10:20:26;;;;;;;7.22;3.08;;;16.60;99.90;;;;;;6153433;23;20472;-71
2021/08/29 10:22:52;;;;;;;7.05;3.30;;;16.50;99.90;;;;;;6127305;23;20013;-71
2021/08/29 10:25:19;;;;;;;6.22;3.08;;;16.60;99.90;;;;;;6102930;23;20073;-71
2021/08/29 10:27:54;;;;;;;7.20;3.70;;;16.70;99.90;;;;;;6102820;23;20016;-70
2021/08/29 10:30:20;;;;;;;6.47;3.00;;;16.80;99.90;;;;;;6127247;23;20025;-71
2021/08/29 10:32:47;;;;;;;6.25;2.95;;;16.90;99.90;;;;;;6127167;23;20014;-71
2021/08/29 10:35:14;;;;;;;6.53;3.47;;;17.00;99.90;;;;;;6153619;23;20068;-71
2021/08/29 10:37:43;;;;;;;6.90;2.92;;;17.10;99.90;;;;;;6153489;23;20066;-71
2021/08/29 10:40:10;;;;;;;6.25;3.15;;;17.20;99.90;;;;;;6153174;23;20013;-71
2021/08/29 10:42:39;;;;;;;6.28;3.42;;;17.40;99.90;;;;;;6153422;23;20017;-71
2021/08/29 10:45:05;;;;;;;9.43;3.30;;;17.60;99.90;;;;;;6127144;23;20437;-71
2021/08/29 10:47:32;;;;;;;5.43;3.30;;;17.70;99.90;;;;;;6127028;23;20021;-71
2021/08/29 10:50:00;;;;;;;6.78;3.40;;;17.80;99.90;;;;;;6127066;23;20017;-71
2021/08/29 10:52:37;;;;;;;9.20;4.10;;;17.80;99.90;;;;;;6153308;23;20072;-71
2021/08/29 10:55:08;;;;;;;6.80;3.10;;;17.60;99.90;;;;;;6153482;23;20500;-71
2021/08/29 10:57:35;;;;;;;;;;;17.70;99.90;;;;;;6127418;23;20014;-71
2021/08/29 11:00:10;;;;;;;8.32;3.05;;;17.50;99.90;;;;;;6151628;23;20032;-71
2021/08/29 11:02:39;;;;;;;4.75;2.97;;;17.70;99.90;;;;;;6126769;23;20096;-71
2021/08/29 11:05:06;;;;;;;4.97;3.28;;;17.60;99.90;;;;;;6126935;23;20084;-71
2021/08/29 11:07:39;;;;;;;5.97;3.55;;;17.60;99.90;;;;;;6126554;23;20326;-71
2021/08/29 11:10:07;;;;;;;5.78;3.70;;;17.50;99.90;;;;;;6127309;23;20020;-71
2021/08/29 11:12:34;;;;;;;7.32;3.22;;;17.60;99.90;;;;;;6126704;23;20025;-71
2021/08/29 11:15:03;;;;;;;6.25;3.30;;;17.30;99.90;;;;;;6152978;23;20429;-71
2021/08/29 11:17:32;;;;;;;5.70;3.47;;;17.20;99.90;;;;;;6126665;23;20380;-71
2021/08/29 11:20:11;;;;;;;7.40;3.45;;;17.30;99.90;;;;;;6126794;23;20323;-71
2021/08/29 11:22:38;;;;;;;5.88;3.58;;;17.30;99.90;;;;;;6126693;23;20345;-71
2021/08/29 11:25:10;;;;;;;8.02;3.40;;;17.40;99.90;;;;;;6126686;23;20442;-71
2021/08/29 11:27:41;;;;;;;4.13;2.90;;;17.40;99.90;;;;;;6126389;23;20017;-71
2021/08/29 11:30:14;;;;;;;5.00;3.17;;;17.60;99.90;;;;;;6102320;23;20337;-71
2021/08/29 11:32:57;;;;;;;5.40;3.10;;;17.60;99.90;;;;;;6102259;23;20045;-70
2021/08/29 11:35:22;;;;;;;5.10;3.42;;;17.70;99.90;;;;;;6126717;23;20345;-71
2021/08/29 11:38:12;;;;;;;7.10;4.10;;;17.70;99.90;;;;;;6126429;23;20100;-71
2021/08/29 11:40:58;;;;;;;6.40;3.30;;;17.60;99.90;;;;;;6102105;23;20017;-71
2021/08/29 11:43:27;;;;;;;4.88;3.78;;;17.70;99.90;;;;;;6126437;23;20081;-73
2021/08/29 11:46:15;;;;;;;7.07;3.58;;;17.60;99.90;;;;;;6126926;23;20013;-73
2021/08/29 11:48:52;;;;;;;5.22;2.90;;;17.80;99.90;;;;;;6152819;23;20020;-73
2021/08/29 11:51:37;;;;;;;4.35;3.05;;;17.70;99.90;;;;;;6126542;23;20013;-72
2021/08/29 11:54:05;;;;;;;5.72;3.35;;;17.70;99.90;;;;;;6152741;23;20436;-73
2021/08/29 11:56:34;;;;;;;6.47;3.63;;;17.80;99.90;;;;;;6126488;23;20020;-69
2021/08/29 11:59:02;;;;;;;5.25;3.45;;;17.80;99.90;;;;;;6126261;23;20025;-68
2021/08/29 12:01:32;;;;;;;6.10;3.33;;;17.60;99.90;;;;;;6102419;23;20325;-69
2021/08/29 12:03:59;;;;;;;6.10;3.90;;;17.70;99.90;;;;;;6152772;23;20385;-68
2021/08/29 12:06:44;;;;;;;5.55;3.83;;;17.70;99.90;;;;;;6126055;23;20021;-68
2021/08/29 12:09:33;;;;;;;7.65;3.78;;;17.80;99.90;;;;;;6126208;23;20021;-69
2021/08/29 12:11:59;;;;;;;6.38;3.85;;;17.80;99.90;;;;;;6126526;23;20017;-68
2021/08/29 12:14:27;;;;;;;5.85;3.75;;;17.90;99.90;;;;;;6152894;23;20510;-68
2021/08/29 12:17:01;;;;;;;6.40;4.05;;;17.80;99.90;;;;;;6126333;23;20493;-69
2021/08/29 12:19:31;;;;;;;5.38;4.00;;;17.90;99.90;;;;;;6126264;23;20013;-69
2021/08/29 12:21:58;;;;;;;7.95;4.00;;;17.90;99.90;;;;;;6152816;23;20025;-69
2021/08/29 12:24:25;;;;;;;6.07;3.92;;;18.00;99.90;;;;;;6126198;23;20084;-69
2021/08/29 12:27:18;;;;;;;6.85;4.25;;;18.00;99.90;;;;;;6126262;23;20092;-69
2021/08/29 12:29:56;;;;;;;8.40;4.03;;;18.10;99.90;;;;;;6121605;23;20032;-69
2021/08/29 12:32:32;;;;;;;7.28;3.92;;;18.00;99.90;;;;;;6152857;23;20019;-69
2021/08/29 12:35:10;;;;;;;8.95;3.80;;;17.90;99.90;;;;;;6126433;23;20029;-69
2021/08/29 12:37:44;;;;;;;8.05;4.40;;;17.90;99.90;;;;;;6126213;23;20022;-70
2021/08/29 12:40:13;;;;;;;6.18;4.03;;;17.80;99.90;;;;;;6126692;23;20009;-71
2021/08/29 12:42:40;;;;;;;6.30;4.10;;;17.70;99.90;;;;;;6154733;23;20009;-71
2021/08/29 12:45:09;;;;;;;7.35;4.57;;;17.60;99.90;;;;;;6154895;23;20085;-71
2021/08/29 12:47:35;;;;;;;7.35;4.15;;;17.50;99.90;;;;;;6154568;23;20009;-71